sensor_id;sensor_type;location;lat;lon;timestamp;pressure;altitude;pressure_sealevel;temperature;humidity
10071;BME280;5074;53.720;10.014;2023-05-29T00:01:47;101901.81;;;10.94;100.00
10071;BME280;5074;53.720;10.014;2023-05-29T00:04:15;101903.88;;;10.80;100.00
10071;BME280;5074;53.720;10.014;2023-05-29T00:06:43;101907.63;;;10.70;100.00
10071;BME280;5074;53.720;10.014;2023-05-29T00:09:11;101910.47;;;10.60;100.00
10071;BME280;5074;53.720;10.014;2023-05-29T00:11:39;101907.53;;;10.74;100.00
10071;BME280;5074;53.720;10.014;2023-05-29T00:14:09;101903.19;;;10.69;100.00
10071;BME280;5074;53.720;10.014;2023-05-29T00:16:40;101901.72;;;10.51;100.00
10071;BME280;5074;53.720;10.014;2023-05-29T00:19:11;101906.09;;;10.56;100.00
10071;BME280;5074;53.720;10.014;2023-05-29T00:21:39;101906.94;;;10.57;100.00
10071;BME280;5074;53.720;10.014;2023-05-29T00:24:07;101916.78;;;10.56;100.00
10071;BME280;5074;53.720;10.014;2023-05-29T00:26:35;101920.47;;;10.49;100.00
10071;BME280;5074;53.720;10.014;2023-05-29T00:29:03;101911.72;;;10.38;100.00
10071;BME280;5074;53.720;10.014;2023-05-29T00:31:33;101928.09;;;10.15;100.00
10071;BME280;5074;53.720;10.014;2023-05-29T00:34:02;101915.88;;;9.98;100.00
10071;BME280;5074;53.720;10.014;2023-05-29T00:36:30;101929.38;;;9.87;100.00
10071;BME280;5074;53.720;10.014;2023-05-29T00:38:59;101926.75;;;9.83;100.00
10071;BME280;5074;53.720;10.014;2023-05-29T00:41:27;101939.56;;;9.54;100.00
10071;BME280;5074;53.720;10.014;2023-05-29T00:43:55;101893.66;;;9.28;100.00
10071;BME280;5074;53.720;10.014;2023-05-29T00:46:23;101935.28;;;9.41;100.00
10071;BME280;5074;53.720;10.014;2023-05-29T00:48:53;101934.41;;;9.41;100.00
10071;BME280;5074;53.720;10.014;2023-05-29T00:51:21;101937.16;;;9.36;100.00
10071;BME280;5074;53.720;10.014;2023-05-29T00:53:50;101938.84;;;9.40;100.00
10071;BME280;5074;53.720;10.014;2023-05-29T00:56:20;101917.88;;;9.09;100.00
10071;BME280;5074;53.720;10.014;2023-05-29T00:58:49;101946.25;;;9.15;100.00
10071;BME280;5074;53.720;10.014;2023-05-29T01:01:19;101941.75;;;9.21;100.00
10071;BME280;5074;53.720;10.014;2023-05-29T01:03:48;101953.47;;;9.05;100.00
10071;BME280;5074;53.720;10.014;2023-05-29T01:06:18;101948.91;;;9.16;100.00
10071;BME280;5074;53.720;10.014;2023-05-29T01:08:47;101953.34;;;9.19;100.00
10071;BME280;5074;53.720;10.014;2023-05-29T01:11:21;101941.81;;;9.14;100.00
10071;BME280;5074;53.720;10.014;2023-05-29T01:13:54;101952.47;;;9.14;100.00
10071;BME280;5074;53.720;10.014;2023-05-29T01:16:30;101953.47;;;9.05;100.00
10071;BME280;5074;53.720;10.014;2023-05-29T01:19:10;101959.78;;;8.96;100.00
10071;BME280;5074;53.720;10.014;2023-05-29T01:21:56;101957.19;;;8.90;100.00
10071;BME280;5074;53.720;10.014;2023-05-29T01:24:32;101945.59;;;8.90;100.00
10071;BME280;5074;53.720;10.014;2023-05-29T01:33:55;101960.88;;;8.72;100.00
10071;BME280;5074;53.720;10.014;2023-05-29T01:36:24;101959.97;;;8.73;100.00
10071;BME280;5074;53.720;10.014;2023-05-29T01:38:55;101966.19;;;8.77;100.00
10071;BME280;5074;53.720;10.014;2023-05-29T01:41:24;101963.50;;;8.78;100.00
10071;BME280;5074;53.720;10.014;2023-05-29T01:43:53;101950.31;;;8.61;100.00
10071;BME280;5074;53.720;10.014;2023-05-29T01:46:23;101969.69;;;8.82;100.00
10071;BME280;5074;53.720;10.014;2023-05-29T01:48:54;101968.84;;;8.78;100.00
10071;BME280;5074;53.720;10.014;2023-05-29T01:51:22;101970.59;;;8.78;100.00
10071;BME280;5074;53.720;10.014;2023-05-29T01:53:51;101967.97;;;8.75;100.00
10071;BME280;5074;53.720;10.014;2023-05-29T01:56:19;101967.13;;;8.69;100.00
10071;BME280;5074;53.720;10.014;2023-05-29T01:58:48;101975.91;;;8.81;100.00
10071;BME280;5074;53.720;10.014;2023-05-29T02:01:16;101968.88;;;8.72;100.00
10071;BME280;5074;53.720;10.014;2023-05-29T02:03:44;101977.78;;;8.73;100.00
10071;BME280;5074;53.720;10.014;2023-05-29T02:06:14;101966.31;;;8.61;100.00
10071;BME280;5074;53.720;10.014;2023-05-29T02:08:42;101977.75;;;8.74;100.00
10071;BME280;5074;53.720;10.014;2023-05-29T02:11:10;101954.84;;;8.50;100.00
10071;BME280;5074;53.720;10.014;2023-05-29T02:13:39;101977.78;;;8.68;100.00
10071;BME280;5074;53.720;10.014;2023-05-29T02:16:07;101983.13;;;8.65;100.00
10071;BME280;5074;53.720;10.014;2023-05-29T02:18:35;101975.13;;;8.66;100.00
10071;BME280;5074;53.720;10.014;2023-05-29T02:21:03;101977.03;;;8.49;100.00
10071;BME280;5074;53.720;10.014;2023-05-29T02:23:32;101973.41;;;8.61;100.00
10071;BME280;5074;53.720;10.014;2023-05-29T02:26:00;101968.13;;;8.56;100.00
10071;BME280;5074;53.720;10.014;2023-05-29T02:28:29;101965.44;;;8.58;100.00
10071;BME280;5074;53.720;10.014;2023-05-29T02:30:57;101962.84;;;8.50;100.00
10071;BME280;5074;53.720;10.014;2023-05-29T02:33:25;101970.00;;;8.37;100.00
10071;BME280;5074;53.720;10.014;2023-05-29T02:35:53;101955.75;;;8.46;100.00
10071;BME280;5074;53.720;10.014;2023-05-29T02:38:21;101953.19;;;8.32;100.00
10071;BME280;5074;53.720;10.014;2023-05-29T02:40:51;101956.66;;;8.39;100.00
10071;BME280;5074;53.720;10.014;2023-05-29T02:43:22;101966.47;;;8.35;100.00
10071;BME280;5074;53.720;10.014;2023-05-29T02:45:50;101963.88;;;8.23;100.00
10071;BME280;5074;53.720;10.014;2023-05-29T02:48:18;101961.16;;;8.29;100.00
10071;BME280;5074;53.720;10.014;2023-05-29T02:50:46;101962.09;;;8.28;100.00
10071;BME280;5074;53.720;10.014;2023-05-29T02:53:14;101966.53;;;8.24;100.00
10071;BME280;5074;53.720;10.014;2023-05-29T02:55:42;101964.69;;;8.35;100.00
10071;BME280;5074;53.720;10.014;2023-05-29T02:58:11;101972.75;;;8.26;100.00
10071;BME280;5074;53.720;10.014;2023-05-29T03:00:40;101970.09;;;8.22;100.00
10071;BME280;5074;53.720;10.014;2023-05-29T03:03:08;101973.69;;;8.19;100.00
10071;BME280;5074;53.720;10.014;2023-05-29T03:05:36;101981.69;;;8.13;100.00
10071;BME280;5074;53.720;10.014;2023-05-29T03:08:04;101971.03;;;8.13;100.00
10071;BME280;5074;53.720;10.014;2023-05-29T03:10:32;101969.28;;;8.09;100.00
10071;BME280;5074;53.720;10.014;2023-05-29T03:13:00;101968.38;;;8.10;100.00
10071;BME280;5074;53.720;10.014;2023-05-29T03:15:30;101961.34;;;8.01;100.00
10071;BME280;5074;53.720;10.014;2023-05-29T03:17:58;101967.53;;;8.06;100.00
10071;BME280;5074;53.720;10.014;2023-05-29T03:20:26;101966.69;;;7.98;100.00
10071;BME280;5074;53.720;10.014;2023-05-29T03:22:55;101972.09;;;7.87;100.00
10071;BME280;5074;53.720;10.014;2023-05-29T03:25:23;101973.78;;;7.99;100.00
10071;BME280;5074;53.720;10.014;2023-05-29T03:27:51;101970.22;;;8.05;100.00
10071;BME280;5074;53.720;10.014;2023-05-29T03:30:19;101972.94;;;7.92;100.00
10071;BME280;5074;53.720;10.014;2023-05-29T03:32:49;101970.28;;;7.91;100.00
10071;BME280;5074;53.720;10.014;2023-05-29T03:35:17;101979.09;;;8.00;100.00
10071;BME280;5074;53.720;10.014;2023-05-29T03:37:45;101984.47;;;7.90;100.00
10071;BME280;5074;53.720;10.014;2023-05-29T03:40:13;101980.06;;;7.90;100.00
10071;BME280;5074;53.720;10.014;2023-05-29T03:42:42;101983.63;;;7.86;100.00
10071;BME280;5074;53.720;10.014;2023-05-29T03:45:10;101979.16;;;7.85;100.00
10071;BME280;5074;53.720;10.014;2023-05-29T03:47:38;101977.41;;;7.87;100.00
10071;BME280;5074;53.720;10.014;2023-05-29T03:50:08;101969.38;;;7.92;100.00
10071;BME280;5074;53.720;10.014;2023-05-29T03:52:38;101976.47;;;7.90;100.00
10071;BME280;5074;53.720;10.014;2023-05-29T03:55:09;101979.13;;;7.91;100.00
10071;BME280;5074;53.720;10.014;2023-05-29T03:57:40;101975.66;;;7.83;100.00
10071;BME280;5074;53.720;10.014;2023-05-29T04:00:09;101979.16;;;7.88;100.00
10071;BME280;5074;53.720;10.014;2023-05-29T04:02:38;101980.91;;;7.94;100.00
10071;BME280;5074;53.720;10.014;2023-05-29T04:05:08;101988.00;;;7.96;100.00
10071;BME280;5074;53.720;10.014;2023-05-29T04:07:36;101986.19;;;7.98;100.00
10071;BME280;5074;53.720;10.014;2023-05-29T04:10:06;101992.44;;;7.99;100.00
10071;BME280;5074;53.720;10.014;2023-05-29T04:12:34;101980.06;;;7.82;100.00
10071;BME280;5074;53.720;10.014;2023-05-29T04:15:03;102000.47;;;7.85;100.00
10071;BME280;5074;53.720;10.014;2023-05-29T04:17:32;101991.53;;;7.97;100.00
10071;BME280;5074;53.720;10.014;2023-05-29T04:20:00;101989.78;;;7.93;100.00
10071;BME280;5074;53.720;10.014;2023-05-29T04:22:37;102008.41;;;7.96;100.00
10071;BME280;5074;53.720;10.014;2023-05-29T04:25:06;102004.88;;;7.94;100.00
10071;BME280;5074;53.720;10.014;2023-05-29T04:27:34;102010.16;;;7.97;100.00
10071;BME280;5074;53.720;10.014;2023-05-29T04:30:05;102020.78;;;8.06;100.00
10071;BME280;5074;53.720;10.014;2023-05-29T04:32:34;102014.47;;;8.23;100.00
10071;BME280;5074;53.720;10.014;2023-05-29T04:35:03;102007.38;;;8.20;100.00
10071;BME280;5074;53.720;10.014;2023-05-29T04:37:31;102009.22;;;8.09;100.00
10071;BME280;5074;53.720;10.014;2023-05-29T04:40:06;102005.56;;;8.28;100.00
10071;BME280;5074;53.720;10.014;2023-05-29T04:42:36;102020.72;;;8.15;100.00
10071;BME280;5074;53.720;10.014;2023-05-29T04:45:05;102017.94;;;8.37;100.00
10071;BME280;5074;53.720;10.014;2023-05-29T04:47:34;102020.56;;;8.42;100.00
10071;BME280;5074;53.720;10.014;2023-05-29T04:50:03;102017.13;;;8.32;100.00
10071;BME280;5074;53.720;10.014;2023-05-29T04:52:32;102015.25;;;8.46;100.00
10071;BME280;5074;53.720;10.014;2023-05-29T04:55:00;102021.53;;;8.33;100.00
10071;BME280;5074;53.720;10.014;2023-05-29T04:57:29;102027.78;;;8.32;100.00
10071;BME280;5074;53.720;10.014;2023-05-29T04:59:57;102032.13;;;8.50;100.00
10071;BME280;5074;53.720;10.014;2023-05-29T05:02:25;102036.63;;;8.34;100.00
10071;BME280;5074;53.720;10.014;2023-05-29T05:04:54;102039.25;;;8.40;100.00
10071;BME280;5074;53.720;10.014;2023-05-29T05:07:22;102048.16;;;8.33;100.00
10071;BME280;5074;53.720;10.014;2023-05-29T05:09:50;102041.03;;;8.46;100.00
10071;BME280;5074;53.720;10.014;2023-05-29T05:12:18;102040.06;;;8.58;100.00
10071;BME280;5074;53.720;10.014;2023-05-29T05:14:47;102043.63;;;8.58;100.00
10071;BME280;5074;53.720;10.014;2023-05-29T05:17:15;102040.06;;;8.55;100.00
10071;BME280;5074;53.720;10.014;2023-05-29T05:19:43;102035.44;;;8.84;100.00
10071;BME280;5074;53.720;10.014;2023-05-29T05:22:11;102040.56;;;9.09;100.00
10071;BME280;5074;53.720;10.014;2023-05-29T05:24:40;102034.34;;;9.04;100.00
10071;BME280;5074;53.720;10.014;2023-05-29T05:27:08;102033.69;;;8.80;100.00
10071;BME280;5074;53.720;10.014;2023-05-29T05:29:36;102039.88;;;8.81;100.00
10071;BME280;5074;53.720;10.014;2023-05-29T05:32:06;102043.50;;;8.71;100.00
10071;BME280;5074;53.720;10.014;2023-05-29T05:34:34;102028.25;;;8.93;100.00
10071;BME280;5074;53.720;10.014;2023-05-29T05:37:02;102045.97;;;8.98;100.00
10071;BME280;5074;53.720;10.014;2023-05-29T05:39:31;102038.91;;;8.94;100.00
10071;BME280;5074;53.720;10.014;2023-05-29T05:41:59;102049.59;;;8.90;100.00
10071;BME280;5074;53.720;10.014;2023-05-29T05:44:28;102044.28;;;8.91;100.00
10071;BME280;5074;53.720;10.014;2023-05-29T05:46:56;102043.31;;;8.97;100.00
10071;BME280;5074;53.720;10.014;2023-05-29T05:49:25;102036.03;;;9.19;100.00
10071;BME280;5074;53.720;10.014;2023-05-29T05:51:53;102034.31;;;9.13;100.00
10071;BME280;5074;53.720;10.014;2023-05-29T05:54:21;102034.34;;;9.10;100.00
10071;BME280;5074;53.720;10.014;2023-05-29T05:56:49;102036.09;;;9.08;100.00
10071;BME280;5074;53.720;10.014;2023-05-29T05:59:17;102041.47;;;9.07;100.00
10071;BME280;5074;53.720;10.014;2023-05-29T06:01:45;102038.75;;;9.10;100.00
10071;BME280;5074;53.720;10.014;2023-05-29T06:04:13;102040.50;;;9.14;100.00
10071;BME280;5074;53.720;10.014;2023-05-29T06:06:43;102048.41;;;9.28;100.00
10071;BME280;5074;53.720;10.014;2023-05-29T06:09:11;102051.69;;;9.53;100.00
10071;BME280;5074;53.720;10.014;2023-05-29T06:11:39;102046.44;;;9.45;100.00
10071;BME280;5074;53.720;10.014;2023-05-29T06:14:07;102043.59;;;9.64;100.00
10071;BME280;5074;53.720;10.014;2023-05-29T06:16:36;102037.22;;;9.74;100.00
10071;BME280;5074;53.720;10.014;2023-05-29T06:19:04;102051.28;;;9.90;100.00
10071;BME280;5074;53.720;10.014;2023-05-29T06:21:32;102045.09;;;9.85;100.00
10071;BME280;5074;53.720;10.014;2023-05-29T06:24:02;102046.19;;;9.70;100.00
10071;BME280;5074;53.720;10.014;2023-05-29T06:26:30;102037.28;;;9.69;100.00
10071;BME280;5074;53.720;10.014;2023-05-29T06:28:58;102047.03;;;9.75;100.00
10071;BME280;5074;53.720;10.014;2023-05-29T06:31:26;102046.25;;;9.64;100.00
10071;BME280;5074;53.720;10.014;2023-05-29T06:33:55;102043.63;;;9.61;100.00
10071;BME280;5074;53.720;10.014;2023-05-29T06:36:23;102048.13;;;9.55;100.00
10071;BME280;5074;53.720;10.014;2023-05-29T06:38:52;102038.19;;;9.68;100.00
10071;BME280;5074;53.720;10.014;2023-05-29T06:41:22;102045.22;;;9.76;100.00
10071;BME280;5074;53.720;10.014;2023-05-29T06:43:50;102041.72;;;9.69;100.00
10071;BME280;5074;53.720;10.014;2023-05-29T06:46:18;102031.06;;;9.69;100.00
10071;BME280;5074;53.720;10.014;2023-05-29T06:48:46;102040.63;;;9.88;100.00
10071;BME280;5074;53.720;10.014;2023-05-29T06:51:16;102044.13;;;9.95;100.00
10071;BME280;5074;53.720;10.014;2023-05-29T06:53:44;102042.34;;;9.94;100.00
10071;BME280;5074;53.720;10.014;2023-05-29T06:56:12;102045.84;;;9.98;100.00
10071;BME280;5074;53.720;10.014;2023-05-29T06:58:41;102056.47;;;10.04;100.00
10071;BME280;5074;53.720;10.014;2023-05-29T07:04:18;102066.28;;;10.02;100.00
10071;BME280;5074;53.720;10.014;2023-05-29T07:06:46;102062.88;;;9.89;100.00
10071;BME280;5074;53.720;10.014;2023-05-29T07:09:14;102066.28;;;10.02;100.00
10071;BME280;5074;53.720;10.014;2023-05-29T07:11:42;102063.59;;;10.02;100.00
10071;BME280;5074;53.720;10.014;2023-05-29T07:14:12;102057.22;;;10.14;100.00
10071;BME280;5074;53.720;10.014;2023-05-29T07:16:41;102058.09;;;10.16;100.00
10071;BME280;5074;53.720;10.014;2023-05-29T07:19:09;102070.56;;;10.15;100.00
10071;BME280;5074;53.720;10.014;2023-05-29T07:21:46;102071.31;;;10.26;100.00
10071;BME280;5074;53.720;10.014;2023-05-29T07:24:15;102071.38;;;10.22;100.00
10071;BME280;5074;53.720;10.014;2023-05-29T07:26:43;102078.28;;;10.38;100.00
10071;BME280;5074;53.720;10.014;2023-05-29T07:29:13;102074.88;;;10.24;100.00
10071;BME280;5074;53.720;10.014;2023-05-29T07:31:43;102074.84;;;10.29;100.00
10071;BME280;5074;53.720;10.014;2023-05-29T07:34:12;102083.63;;;10.41;100.00
10071;BME280;5074;53.720;10.014;2023-05-29T07:36:56;102074.66;;;10.47;100.00
10071;BME280;5074;53.720;10.014;2023-05-29T07:39:25;102074.44;;;10.59;100.00
10071;BME280;5074;53.720;10.014;2023-05-29T07:41:53;102073.31;;;10.76;100.00
10071;BME280;5074;53.720;10.014;2023-05-29T07:44:23;102067.16;;;10.71;100.00
10071;BME280;5074;53.720;10.014;2023-05-29T07:46:51;102068.88;;;10.75;100.00
10071;BME280;5074;53.720;10.014;2023-05-29T07:49:19;102063.31;;;10.89;100.00
10071;BME280;5074;53.720;10.014;2023-05-29T07:51:48;102064.16;;;10.92;100.00
10071;BME280;5074;53.720;10.014;2023-05-29T07:54:16;102057.84;;;10.97;100.00
10071;BME280;5074;53.720;10.014;2023-05-29T07:56:47;102056.84;;;11.04;100.00
10071;BME280;5074;53.720;10.014;2023-05-29T07:59:15;102063.13;;;11.01;100.00
10071;BME280;5074;53.720;10.014;2023-05-29T08:01:45;102055.06;;;11.03;100.00
10071;BME280;5074;53.720;10.014;2023-05-29T08:04:13;102062.88;;;11.17;100.00
10071;BME280;5074;53.720;10.014;2023-05-29T08:06:42;102058.44;;;11.14;100.00
10071;BME280;5074;53.720;10.014;2023-05-29T08:09:11;102069.03;;;11.20;100.00
10071;BME280;5074;53.720;10.014;2023-05-29T08:11:39;102069.78;;;11.30;100.00
10071;BME280;5074;53.720;10.014;2023-05-29T08:14:07;102071.69;;;11.22;100.00
10071;BME280;5074;53.720;10.014;2023-05-29T08:16:35;102061.84;;;11.24;100.00
10071;BME280;5074;53.720;10.014;2023-05-29T08:19:05;102068.41;;;11.56;100.00
10071;BME280;5074;53.720;10.014;2023-05-29T08:21:33;102074.44;;;11.69;100.00
10071;BME280;5074;53.720;10.014;2023-05-29T08:24:02;102067.50;;;11.58;100.00
10071;BME280;5074;53.720;10.014;2023-05-29T08:26:31;102064.66;;;11.66;100.00
10071;BME280;5074;53.720;10.014;2023-05-29T08:29:00;102053.63;;;11.83;100.00
10071;BME280;5074;53.720;10.014;2023-05-29T08:31:29;102057.81;;;11.98;100.00
10071;BME280;5074;53.720;10.014;2023-05-29T08:33:57;102055.34;;;11.84;100.00
10071;BME280;5074;53.720;10.014;2023-05-29T08:36:27;102056.00;;;11.98;100.00
10071;BME280;5074;53.720;10.014;2023-05-29T08:38:55;102062.31;;;11.96;100.00
10071;BME280;5074;53.720;10.014;2023-05-29T08:41:26;102059.34;;;12.10;100.00
10071;BME280;5074;53.720;10.014;2023-05-29T08:43:57;102062.81;;;12.15;100.00
10071;BME280;5074;53.720;10.014;2023-05-29T08:46:27;102050.09;;;12.23;100.00
10071;BME280;5074;53.720;10.014;2023-05-29T08:48:58;102052.56;;;12.34;100.00
10071;BME280;5074;53.720;10.014;2023-05-29T08:51:31;102053.41;;;12.36;100.00
10071;BME280;5074;53.720;10.014;2023-05-29T08:54:01;102051.38;;;12.47;100.00
10071;BME280;5074;53.720;10.014;2023-05-29T08:56:30;102059.97;;;12.62;100.00
10071;BME280;5074;53.720;10.014;2023-05-29T08:59:01;102066.25;;;12.62;100.00
10071;BME280;5074;53.720;10.014;2023-05-29T09:01:34;102067.00;;;12.67;100.00
10071;BME280;5074;53.720;10.014;2023-05-29T09:04:03;102062.69;;;12.60;100.00
10071;BME280;5074;53.720;10.014;2023-05-29T09:06:33;102065.38;;;12.60;100.00
10071;BME280;5074;53.720;10.014;2023-05-29T09:09:01;102061.41;;;12.78;100.00
10071;BME280;5074;53.720;10.014;2023-05-29T09:11:31;102061.31;;;12.81;100.00
10071;BME280;5074;53.720;10.014;2023-05-29T09:13:59;102066.59;;;12.84;100.00
10071;BME280;5074;53.720;10.014;2023-05-29T09:16:29;102077.38;;;12.83;100.00
10071;BME280;5074;53.720;10.014;2023-05-29T09:19:04;102072.31;;;13.07;100.00
10071;BME280;5074;53.720;10.014;2023-05-29T09:21:34;102070.47;;;13.10;100.00
10071;BME280;5074;53.720;10.014;2023-05-29T09:24:04;102072.97;;;13.16;100.00
10071;BME280;5074;53.720;10.014;2023-05-29T09:26:32;102071.56;;;13.01;100.00
10071;BME280;5074;53.720;10.014;2023-05-29T09:29:01;102058.00;;;13.08;100.00
10071;BME280;5074;53.720;10.014;2023-05-29T09:31:30;102061.41;;;13.14;100.00
10071;BME280;5074;53.720;10.014;2023-05-29T09:34:01;102064.81;;;13.21;100.00
10071;BME280;5074;53.720;10.014;2023-05-29T09:36:30;102059.56;;;13.16;100.00
10071;BME280;5074;53.720;10.014;2023-05-29T09:39:02;102059.53;;;13.18;100.00
10071;BME280;5074;53.720;10.014;2023-05-29T09:41:42;102063.88;;;13.22;100.00
10071;BME280;5074;53.720;10.014;2023-05-29T09:44:12;102066.13;;;13.41;100.00
10071;BME280;5074;53.720;10.014;2023-05-29T09:46:41;102073.03;;;13.51;100.00
10071;BME280;5074;53.720;10.014;2023-05-29T09:49:11;102060.28;;;13.59;100.00
10071;BME280;5074;53.720;10.014;2023-05-29T09:51:40;102064.47;;;13.69;100.00
10071;BME280;5074;53.720;10.014;2023-05-29T09:54:17;102063.31;;;13.78;100.00
10071;BME280;5074;53.720;10.014;2023-05-29T09:56:47;102060.72;;;13.75;98.97
10071;BME280;5074;53.720;10.014;2023-05-29T09:59:15;102059.66;;;13.81;100.00
10071;BME280;5074;53.720;10.014;2023-05-29T10:01:47;102052.53;;;13.80;100.00
10071;BME280;5074;53.720;10.014;2023-05-29T10:04:15;102049.53;;;13.90;100.00
10071;BME280;5074;53.720;10.014;2023-05-29T10:06:44;102051.19;;;13.95;100.00
10071;BME280;5074;53.720;10.014;2023-05-29T10:09:17;102055.44;;;14.03;100.00
10071;BME280;5074;53.720;10.014;2023-05-29T10:11:47;102054.31;;;14.11;93.91
10071;BME280;5074;53.720;10.014;2023-05-29T10:14:18;102056.03;;;14.13;95.36
10071;BME280;5074;53.720;10.014;2023-05-29T10:16:49;102054.88;;;14.22;95.95
10071;BME280;5074;53.720;10.014;2023-05-29T10:19:22;102051.31;;;14.21;90.33
10071;BME280;5074;53.720;10.014;2023-05-29T10:21:53;102051.53;;;14.14;91.25
10071;BME280;5074;53.720;10.014;2023-05-29T10:24:24;102049.31;;;14.28;95.87
10071;BME280;5074;53.720;10.014;2023-05-29T10:26:55;102048.19;;;14.35;94.63
10071;BME280;5074;53.720;10.014;2023-05-29T10:29:27;102031.09;;;14.38;93.99
10071;BME280;5074;53.720;10.014;2023-05-29T10:32:05;102040.56;;;14.50;77.71
10071;BME280;5074;53.720;10.014;2023-05-29T10:34:42;102036.88;;;14.54;83.64
10071;BME280;5074;53.720;10.014;2023-05-29T10:37:21;102042.00;;;14.63;83.81
10071;BME280;5074;53.720;10.014;2023-05-29T10:39:52;102043.56;;;14.40;86.27
10071;BME280;5074;53.720;10.014;2023-05-29T10:42:47;102038.84;;;14.49;84.14
10071;BME280;5074;53.720;10.014;2023-05-29T10:45:48;102037.56;;;14.61;77.13
10071;BME280;5074;53.720;10.014;2023-05-29T10:48:36;102034.69;;;14.67;78.35
10071;BME280;5074;53.720;10.014;2023-05-29T10:51:06;102033.38;;;14.80;86.97
10071;BME280;5074;53.720;10.014;2023-05-29T10:53:35;102029.75;;;14.81;82.38
10071;BME280;5074;53.720;10.014;2023-05-29T10:56:20;102034.81;;;14.90;83.70
10071;BME280;5074;53.720;10.014;2023-05-29T10:58:53;102019.41;;;14.96;89.18
10071;BME280;5074;53.720;10.014;2023-05-29T11:01:22;102022.72;;;15.04;85.70
10071;BME280;5074;53.720;10.014;2023-05-29T11:03:51;102015.50;;;15.04;82.57
10071;BME280;5074;53.720;10.014;2023-05-29T11:06:21;102017.41;;;15.02;83.49
10071;BME280;5074;53.720;10.014;2023-05-29T11:08:54;102015.59;;;15.28;84.83
10071;BME280;5074;53.720;10.014;2023-05-29T11:11:31;102016.38;;;15.32;81.22
10071;BME280;5074;53.720;10.014;2023-05-29T11:14:03;102022.34;;;15.15;83.50
10071;BME280;5074;53.720;10.014;2023-05-29T11:16:36;102017.47;;;15.26;82.93
10071;BME280;5074;53.720;10.014;2023-05-29T11:19:05;102007.81;;;15.45;77.49
10071;BME280;5074;53.720;10.014;2023-05-29T11:21:49;102008.06;;;15.63;79.09
10071;BME280;5074;53.720;10.014;2023-05-29T11:24:23;102013.81;;;15.77;75.11
10071;BME280;5074;53.720;10.014;2023-05-29T11:26:54;102014.50;;;15.84;74.54
10071;BME280;5074;53.720;10.014;2023-05-29T11:29:24;102015.03;;;15.94;74.44
10071;BME280;5074;53.720;10.014;2023-05-29T11:31:58;102013.06;;;15.99;71.75
10071;BME280;5074;53.720;10.014;2023-05-29T11:34:39;102004.66;;;16.07;72.89
10071;BME280;5074;53.720;10.014;2023-05-29T11:37:08;101995.78;;;16.03;77.20
10071;BME280;5074;53.720;10.014;2023-05-29T11:39:36;102004.91;;;16.01;78.83
10071;BME280;5074;53.720;10.014;2023-05-29T11:42:06;101998.28;;;16.09;76.16
10071;BME280;5074;53.720;10.014;2023-05-29T11:44:35;101996.72;;;16.26;74.84
10071;BME280;5074;53.720;10.014;2023-05-29T11:47:04;101995.59;;;16.31;73.55
10071;BME280;5074;53.720;10.014;2023-05-29T11:49:33;102006.03;;;16.63;71.12
10071;BME280;5074;53.720;10.014;2023-05-29T11:52:08;101987.56;;;16.74;77.43
10071;BME280;5074;53.720;10.014;2023-05-29T11:54:43;101993.47;;;17.06;71.83
10071;BME280;5074;53.720;10.014;2023-05-29T11:57:19;101989.63;;;17.12;73.49
10071;BME280;5074;53.720;10.014;2023-05-29T11:59:47;101985.94;;;17.13;72.04
10071;BME280;5074;53.720;10.014;2023-05-29T12:02:15;101989.97;;;17.25;68.63
10071;BME280;5074;53.720;10.014;2023-05-29T12:04:44;101981.28;;;16.96;72.80
10071;BME280;5074;53.720;10.014;2023-05-29T12:07:17;101978.88;;;17.10;73.04
10071;BME280;5074;53.720;10.014;2023-05-29T12:09:45;101980.81;;;17.27;68.68
10071;BME280;5074;53.720;10.014;2023-05-29T12:12:15;101979.78;;;17.50;66.94
10071;BME280;5074;53.720;10.014;2023-05-29T12:14:49;101984.88;;;17.77;67.37
10071;BME280;5074;53.720;10.014;2023-05-29T12:17:19;101988.81;;;17.91;66.15
10071;BME280;5074;53.720;10.014;2023-05-29T12:19:48;101980.56;;;17.73;59.08
10071;BME280;5074;53.720;10.014;2023-05-29T12:22:16;101988.13;;;17.85;55.87
10071;BME280;5074;53.720;10.014;2023-05-29T12:24:44;101985.28;;;18.46;59.81
10071;BME280;5074;53.720;10.014;2023-05-29T12:27:13;101981.56;;;18.66;56.69
10071;BME280;5074;53.720;10.014;2023-05-29T12:29:41;101979.25;;;19.47;55.49
10071;BME280;5074;53.720;10.014;2023-05-29T12:32:11;101972.38;;;20.39;50.46
10071;BME280;5074;53.720;10.014;2023-05-29T12:34:39;101970.94;;;20.63;49.64
10071;BME280;5074;53.720;10.014;2023-05-29T12:37:10;101965.91;;;21.18;47.99
10071;BME280;5074;53.720;10.014;2023-05-29T12:39:41;101968.94;;;22.83;45.76
10071;BME280;5074;53.720;10.014;2023-05-29T12:42:09;101958.81;;;23.51;43.09
10071;BME280;5074;53.720;10.014;2023-05-29T12:44:37;101960.75;;;23.11;39.95
10071;BME280;5074;53.720;10.014;2023-05-29T12:47:06;101955.34;;;25.20;35.74
10071;BME280;5074;53.720;10.014;2023-05-29T12:49:35;101969.13;;;23.07;34.51
10071;BME280;5074;53.720;10.014;2023-05-29T12:52:05;101954.09;;;22.75;34.45
10071;BME280;5074;53.720;10.014;2023-05-29T12:54:34;101954.38;;;22.97;33.06
10071;BME280;5074;53.720;10.014;2023-05-29T12:57:02;101944.91;;;24.30;32.30
10071;BME280;5074;53.720;10.014;2023-05-29T12:59:30;101932.94;;;25.73;31.74
10071;BME280;5074;53.720;10.014;2023-05-29T13:01:59;101944.00;;;25.72;31.50
10071;BME280;5074;53.720;10.014;2023-05-29T13:04:27;101942.13;;;27.36;29.82
10071;BME280;5074;53.720;10.014;2023-05-29T13:06:58;101939.63;;;26.69;30.28
10071;BME280;5074;53.720;10.014;2023-05-29T13:09:26;101934.31;;;26.02;29.00
10071;BME280;5074;53.720;10.014;2023-05-29T13:11:54;101938.38;;;27.99;25.20